sensor_id;sensor_type;location;lat;lon;timestamp;P1;durP1;ratioP1;P2;durP2;ratioP2
29570;SDS011;16814;52.118;11.436;2023-07-31T00:00:16;10.85;;;2.03;;
29570;SDS011;16814;52.118;11.436;2023-07-31T00:02:43;8.52;;;1.80;;
29570;SDS011;16814;52.118;11.436;2023-07-31T00:05:10;13.35;;;2.03;;
29570;SDS011;16814;52.118;11.436;2023-07-31T00:07:36;7.32;;;1.60;;
29570;SDS011;16814;52.118;11.436;2023-07-31T00:10:05;12.30;;;2.47;;
29570;SDS011;16814;52.118;11.436;2023-07-31T00:12:32;5.60;;;1.75;;
29570;SDS011;16814;52.118;11.436;2023-07-31T00:14:59;9.52;;;2.38;;
29570;SDS011;16814;52.118;11.436;2023-07-31T00:17:25;8.63;;;1.85;;
29570;SDS011;16814;52.118;11.436;2023-07-31T00:19:51;7.07;;;2.00;;
29570;SDS011;16814;52.118;11.436;2023-07-31T00:22:19;7.05;;;1.95;;
29570;SDS011;16814;52.118;11.436;2023-07-31T00:24:45;8.50;;;2.13;;
29570;SDS011;16814;52.118;11.436;2023-07-31T00:27:11;11.35;;;2.00;;
29570;SDS011;16814;52.118;11.436;2023-07-31T00:29:38;7.15;;;2.03;;
29570;SDS011;16814;52.118;11.436;2023-07-31T00:32:06;6.72;;;1.83;;
29570;SDS011;16814;52.118;11.436;2023-07-31T00:34:33;7.60;;;2.03;;
29570;SDS011;16814;52.118;11.436;2023-07-31T00:37:00;8.32;;;2.20;;
29570;SDS011;16814;52.118;11.436;2023-07-31T00:39:29;9.23;;;2.30;;
29570;SDS011;16814;52.118;11.436;2023-07-31T00:41:59;9.48;;;1.70;;
29570;SDS011;16814;52.118;11.436;2023-07-31T00:44:26;8.05;;;2.03;;
29570;SDS011;16814;52.118;11.436;2023-07-31T00:46:52;7.22;;;1.92;;
29570;SDS011;16814;52.118;11.436;2023-07-31T00:49:20;9.13;;;1.88;;
29570;SDS011;16814;52.118;11.436;2023-07-31T00:51:50;7.53;;;2.05;;
29570;SDS011;16814;52.118;11.436;2023-07-31T00:54:17;9.93;;;2.13;;
29570;SDS011;16814;52.118;11.436;2023-07-31T00:56:44;6.88;;;1.80;;
29570;SDS011;16814;52.118;11.436;2023-07-31T00:59:12;9.65;;;2.05;;
29570;SDS011;16814;52.118;11.436;2023-07-31T01:01:39;6.18;;;1.80;;
29570;SDS011;16814;52.118;11.436;2023-07-31T01:04:10;7.45;;;1.88;;
29570;SDS011;16814;52.118;11.436;2023-07-31T01:09:45;5.53;;;2.00;;
29570;SDS011;16814;52.118;11.436;2023-07-31T01:12:33;4.43;;;1.63;;
29570;SDS011;16814;52.118;11.436;2023-07-31T01:15:06;5.78;;;2.03;;
29570;SDS011;16814;52.118;11.436;2023-07-31T01:17:38;8.93;;;2.00;;
29570;SDS011;16814;52.118;11.436;2023-07-31T01:25:50;8.13;;;2.50;;
29570;SDS011;16814;52.118;11.436;2023-07-31T01:28:33;9.13;;;2.30;;
29570;SDS011;16814;52.118;11.436;2023-07-31T01:31:22;10.30;;;2.30;;
29570;SDS011;16814;52.118;11.436;2023-07-31T01:33:52;7.10;;;2.13;;
29570;SDS011;16814;52.118;11.436;2023-07-31T01:36:24;7.50;;;1.98;;
29570;SDS011;16814;52.118;11.436;2023-07-31T01:38:52;7.80;;;2.07;;
29570;SDS011;16814;52.118;11.436;2023-07-31T01:41:17;5.88;;;1.85;;
29570;SDS011;16814;52.118;11.436;2023-07-31T01:43:50;6.88;;;2.08;;
29570;SDS011;16814;52.118;11.436;2023-07-31T01:46:16;7.82;;;1.83;;
29570;SDS011;16814;52.118;11.436;2023-07-31T01:48:43;7.00;;;1.77;;
29570;SDS011;16814;52.118;11.436;2023-07-31T01:51:11;5.63;;;1.90;;
29570;SDS011;16814;52.118;11.436;2023-07-31T01:53:38;11.55;;;2.80;;
29570;SDS011;16814;52.118;11.436;2023-07-31T01:56:04;9.32;;;2.40;;
29570;SDS011;16814;52.118;11.436;2023-07-31T01:58:31;7.32;;;2.00;;
29570;SDS011;16814;52.118;11.436;2023-07-31T02:00:59;5.15;;;1.90;;
29570;SDS011;16814;52.118;11.436;2023-07-31T02:03:25;6.28;;;1.92;;
29570;SDS011;16814;52.118;11.436;2023-07-31T02:05:50;7.13;;;2.00;;
29570;SDS011;16814;52.118;11.436;2023-07-31T02:08:16;7.80;;;2.20;;
29570;SDS011;16814;52.118;11.436;2023-07-31T02:10:44;8.07;;;2.00;;
29570;SDS011;16814;52.118;11.436;2023-07-31T02:13:10;7.72;;;2.05;;
29570;SDS011;16814;52.118;11.436;2023-07-31T02:15:38;8.73;;;2.35;;
29570;SDS011;16814;52.118;11.436;2023-07-31T02:18:05;7.07;;;1.90;;
29570;SDS011;16814;52.118;11.436;2023-07-31T02:20:33;6.43;;;1.95;;
29570;SDS011;16814;52.118;11.436;2023-07-31T02:23:00;8.15;;;2.60;;
29570;SDS011;16814;52.118;11.436;2023-07-31T02:25:26;12.10;;;2.35;;
29570;SDS011;16814;52.118;11.436;2023-07-31T02:27:51;6.00;;;2.08;;
29570;SDS011;16814;52.118;11.436;2023-07-31T02:30:19;5.68;;;1.65;;
29570;SDS011;16814;52.118;11.436;2023-07-31T02:32:46;6.23;;;1.97;;
29570;SDS011;16814;52.118;11.436;2023-07-31T02:35:15;10.00;;;1.83;;
29570;SDS011;16814;52.118;11.436;2023-07-31T02:37:43;10.82;;;2.05;;
29570;SDS011;16814;52.118;11.436;2023-07-31T02:40:10;11.13;;;2.33;;
29570;SDS011;16814;52.118;11.436;2023-07-31T02:42:37;6.03;;;1.95;;
29570;SDS011;16814;52.118;11.436;2023-07-31T02:45:06;5.38;;;1.80;;
29570;SDS011;16814;52.118;11.436;2023-07-31T02:47:43;4.70;;;1.90;;
29570;SDS011;16814;52.118;11.436;2023-07-31T02:50:09;4.60;;;1.67;;
29570;SDS011;16814;52.118;11.436;2023-07-31T02:52:37;6.97;;;1.63;;
29570;SDS011;16814;52.118;11.436;2023-07-31T02:55:05;10.63;;;1.70;;
29570;SDS011;16814;52.118;11.436;2023-07-31T02:57:31;4.87;;;1.63;;
29570;SDS011;16814;52.118;11.436;2023-07-31T02:59:57;6.00;;;1.33;;
29570;SDS011;16814;52.118;11.436;2023-07-31T03:02:24;5.20;;;1.30;;
29570;SDS011;16814;52.118;11.436;2023-07-31T03:04:50;3.38;;;1.05;;
29570;SDS011;16814;52.118;11.436;2023-07-31T03:07:17;5.70;;;1.30;;
29570;SDS011;16814;52.118;11.436;2023-07-31T03:09:44;3.95;;;1.33;;
29570;SDS011;16814;52.118;11.436;2023-07-31T03:12:11;3.00;;;1.27;;
29570;SDS011;16814;52.118;11.436;2023-07-31T03:14:37;4.90;;;1.30;;
29570;SDS011;16814;52.118;11.436;2023-07-31T03:17:05;2.05;;;1.10;;
29570;SDS011;16814;52.118;11.436;2023-07-31T03:19:32;2.40;;;1.38;;
29570;SDS011;16814;52.118;11.436;2023-07-31T03:21:58;3.03;;;1.30;;
29570;SDS011;16814;52.118;11.436;2023-07-31T03:24:25;2.15;;;1.10;;
29570;SDS011;16814;52.118;11.436;2023-07-31T03:26:54;3.83;;;1.20;;
29570;SDS011;16814;52.118;11.436;2023-07-31T03:29:22;2.47;;;1.10;;
29570;SDS011;16814;52.118;11.436;2023-07-31T03:31:55;1.98;;;0.90;;
29570;SDS011;16814;52.118;11.436;2023-07-31T03:34:21;2.10;;;0.90;;
29570;SDS011;16814;52.118;11.436;2023-07-31T03:36:47;3.03;;;1.02;;
29570;SDS011;16814;52.118;11.436;2023-07-31T03:39:16;5.20;;;0.88;;
29570;SDS011;16814;52.118;11.436;2023-07-31T03:41:42;4.00;;;1.27;;
29570;SDS011;16814;52.118;11.436;2023-07-31T03:44:11;5.47;;;1.00;;
29570;SDS011;16814;52.118;11.436;2023-07-31T03:46:37;4.72;;;1.10;;
29570;SDS011;16814;52.118;11.436;2023-07-31T03:49:05;2.20;;;0.60;;
29570;SDS011;16814;52.118;11.436;2023-07-31T03:51:32;1.60;;;0.70;;
29570;SDS011;16814;52.118;11.436;2023-07-31T03:53:59;5.25;;;0.95;;
29570;SDS011;16814;52.118;11.436;2023-07-31T03:56:26;1.73;;;0.70;;
29570;SDS011;16814;52.118;11.436;2023-07-31T03:58:53;4.97;;;0.98;;
29570;SDS011;16814;52.118;11.436;2023-07-31T04:01:19;2.75;;;0.80;;
29570;SDS011;16814;52.118;11.436;2023-07-31T04:03:48;2.22;;;0.70;;
29570;SDS011;16814;52.118;11.436;2023-07-31T04:06:15;3.40;;;1.00;;
29570;SDS011;16814;52.118;11.436;2023-07-31T04:08:43;1.77;;;0.70;;
29570;SDS011;16814;52.118;11.436;2023-07-31T04:11:10;6.25;;;0.90;;
29570;SDS011;16814;52.118;11.436;2023-07-31T04:13:38;5.50;;;0.80;;
29570;SDS011;16814;52.118;11.436;2023-07-31T04:16:05;3.90;;;0.90;;
29570;SDS011;16814;52.118;11.436;2023-07-31T04:18:31;6.82;;;1.15;;
29570;SDS011;16814;52.118;11.436;2023-07-31T04:20:59;5.55;;;0.95;;
29570;SDS011;16814;52.118;11.436;2023-07-31T04:23:27;2.85;;;0.90;;
29570;SDS011;16814;52.118;11.436;2023-07-31T04:25:55;3.33;;;0.82;;
29570;SDS011;16814;52.118;11.436;2023-07-31T04:28:21;14.07;;;1.20;;
29570;SDS011;16814;52.118;11.436;2023-07-31T04:30:48;4.35;;;1.08;;
29570;SDS011;16814;52.118;11.436;2023-07-31T04:33:15;5.43;;;1.30;;
29570;SDS011;16814;52.118;11.436;2023-07-31T04:35:40;7.37;;;1.03;;
29570;SDS011;16814;52.118;11.436;2023-07-31T04:38:16;6.60;;;1.08;;
29570;SDS011;16814;52.118;11.436;2023-07-31T04:40:46;8.93;;;1.17;;
29570;SDS011;16814;52.118;11.436;2023-07-31T04:43:17;5.55;;;1.17;;
29570;SDS011;16814;52.118;11.436;2023-07-31T04:45:49;5.37;;;1.00;;
29570;SDS011;16814;52.118;11.436;2023-07-31T04:48:15;5.85;;;1.25;;
29570;SDS011;16814;52.118;11.436;2023-07-31T04:50:43;5.43;;;1.45;;
29570;SDS011;16814;52.118;11.436;2023-07-31T04:53:10;7.57;;;1.38;;
29570;SDS011;16814;52.118;11.436;2023-07-31T04:55:37;2.63;;;1.25;;
29570;SDS011;16814;52.118;11.436;2023-07-31T04:58:07;8.10;;;1.35;;
29570;SDS011;16814;52.118;11.436;2023-07-31T05:00:33;6.45;;;1.33;;
29570;SDS011;16814;52.118;11.436;2023-07-31T05:02:59;5.03;;;1.33;;
29570;SDS011;16814;52.118;11.436;2023-07-31T05:05:28;5.30;;;1.60;;
29570;SDS011;16814;52.118;11.436;2023-07-31T05:07:55;3.00;;;1.30;;
29570;SDS011;16814;52.118;11.436;2023-07-31T05:10:23;4.70;;;1.40;;
29570;SDS011;16814;52.118;11.436;2023-07-31T05:12:50;3.35;;;1.20;;
29570;SDS011;16814;52.118;11.436;2023-07-31T05:15:18;4.57;;;1.15;;
29570;SDS011;16814;52.118;11.436;2023-07-31T05:17:44;3.10;;;1.17;;
29570;SDS011;16814;52.118;11.436;2023-07-31T05:20:11;4.30;;;1.45;;
29570;SDS011;16814;52.118;11.436;2023-07-31T05:22:37;5.85;;;1.35;;
29570;SDS011;16814;52.118;11.436;2023-07-31T05:25:03;4.20;;;1.00;;
29570;SDS011;16814;52.118;11.436;2023-07-31T05:27:32;7.25;;;1.20;;
29570;SDS011;16814;52.118;11.436;2023-07-31T05:29:58;3.67;;;1.23;;
29570;SDS011;16814;52.118;11.436;2023-07-31T05:32:27;5.47;;;1.08;;
29570;SDS011;16814;52.118;11.436;2023-07-31T05:34:53;4.03;;;1.37;;
29570;SDS011;16814;52.118;11.436;2023-07-31T05:37:24;3.30;;;1.48;;
29570;SDS011;16814;52.118;11.436;2023-07-31T05:39:51;5.72;;;1.15;;
29570;SDS011;16814;52.118;11.436;2023-07-31T05:42:19;2.42;;;1.10;;
29570;SDS011;16814;52.118;11.436;2023-07-31T05:44:46;2.22;;;1.08;;
29570;SDS011;16814;52.118;11.436;2023-07-31T05:47:14;5.05;;;1.00;;
29570;SDS011;16814;52.118;11.436;2023-07-31T05:49:43;5.15;;;1.10;;
29570;SDS011;16814;52.118;11.436;2023-07-31T05:52:10;3.78;;;1.45;;
29570;SDS011;16814;52.118;11.436;2023-07-31T05:54:38;2.57;;;0.80;;
29570;SDS011;16814;52.118;11.436;2023-07-31T05:57:04;3.05;;;1.02;;
29570;SDS011;16814;52.118;11.436;2023-07-31T05:59:33;2.95;;;0.95;;
29570;SDS011;16814;52.118;11.436;2023-07-31T06:02:00;1.98;;;1.08;;
29570;SDS011;16814;52.118;11.436;2023-07-31T06:04:27;3.22;;;1.20;;
29570;SDS011;16814;52.118;11.436;2023-07-31T06:06:56;1.47;;;0.77;;
29570;SDS011;16814;52.118;11.436;2023-07-31T06:09:24;1.98;;;0.80;;
29570;SDS011;16814;52.118;11.436;2023-07-31T06:11:51;2.83;;;0.88;;
29570;SDS011;16814;52.118;11.436;2023-07-31T06:14:16;3.33;;;1.00;;
29570;SDS011;16814;52.118;11.436;2023-07-31T06:16:45;2.45;;;1.00;;
29570;SDS011;16814;52.118;11.436;2023-07-31T06:19:10;7.43;;;1.20;;
29570;SDS011;16814;52.118;11.436;2023-07-31T06:21:40;3.20;;;1.23;;
29570;SDS011;16814;52.118;11.436;2023-07-31T06:24:08;2.17;;;1.10;;
29570;SDS011;16814;52.118;11.436;2023-07-31T06:26:38;2.75;;;1.20;;
29570;SDS011;16814;52.118;11.436;2023-07-31T06:29:05;3.42;;;1.02;;
29570;SDS011;16814;52.118;11.436;2023-07-31T06:31:33;2.45;;;1.15;;
29570;SDS011;16814;52.118;11.436;2023-07-31T06:34:00;1.00;;;0.90;;
29570;SDS011;16814;52.118;11.436;2023-07-31T06:36:26;5.68;;;1.20;;
29570;SDS011;16814;52.118;11.436;2023-07-31T06:38:52;4.73;;;1.17;;
29570;SDS011;16814;52.118;11.436;2023-07-31T06:41:20;4.13;;;1.00;;
29570;SDS011;16814;52.118;11.436;2023-07-31T06:43:47;2.35;;;1.30;;
29570;SDS011;16814;52.118;11.436;2023-07-31T06:46:13;2.28;;;0.90;;
29570;SDS011;16814;52.118;11.436;2023-07-31T06:48:41;8.10;;;1.30;;
29570;SDS011;16814;52.118;11.436;2023-07-31T06:51:09;2.38;;;0.90;;
29570;SDS011;16814;52.118;11.436;2023-07-31T06:53:37;3.60;;;1.08;;
29570;SDS011;16814;52.118;11.436;2023-07-31T06:56:04;5.97;;;2.00;;
29570;SDS011;16814;52.118;11.436;2023-07-31T06:58:31;4.60;;;1.30;;
29570;SDS011;16814;52.118;11.436;2023-07-31T07:00:59;5.45;;;1.30;;
29570;SDS011;16814;52.118;11.436;2023-07-31T07:03:27;3.25;;;1.25;;
29570;SDS011;16814;52.118;11.436;2023-07-31T07:05:54;2.60;;;1.15;;
29570;SDS011;16814;52.118;11.436;2023-07-31T07:08:22;4.38;;;1.30;;
29570;SDS011;16814;52.118;11.436;2023-07-31T07:10:47;3.83;;;1.52;;
29570;SDS011;16814;52.118;11.436;2023-07-31T07:13:13;3.22;;;1.45;;
29570;SDS011;16814;52.118;11.436;2023-07-31T07:15:39;3.37;;;1.20;;
29570;SDS011;16814;52.118;11.436;2023-07-31T07:18:06;4.55;;;1.20;;
29570;SDS011;16814;52.118;11.436;2023-07-31T07:20:33;3.10;;;1.27;;
29570;SDS011;16814;52.118;11.436;2023-07-31T07:22:59;6.50;;;1.37;;
29570;SDS011;16814;52.118;11.436;2023-07-31T07:25:37;5.88;;;1.40;;
29570;SDS011;16814;52.118;11.436;2023-07-31T07:28:05;2.35;;;1.15;;
29570;SDS011;16814;52.118;11.436;2023-07-31T07:30:33;3.30;;;1.58;;
29570;SDS011;16814;52.118;11.436;2023-07-31T07:33:00;2.25;;;1.05;;
29570;SDS011;16814;52.118;11.436;2023-07-31T07:35:28;2.45;;;1.20;;
29570;SDS011;16814;52.118;11.436;2023-07-31T07:37:57;2.35;;;1.10;;
29570;SDS011;16814;52.118;11.436;2023-07-31T07:40:26;2.50;;;1.42;;
29570;SDS011;16814;52.118;11.436;2023-07-31T07:42:54;3.47;;;1.27;;
29570;SDS011;16814;52.118;11.436;2023-07-31T07:45:21;2.92;;;1.35;;
29570;SDS011;16814;52.118;11.436;2023-07-31T07:47:46;6.88;;;1.73;;
29570;SDS011;16814;52.118;11.436;2023-07-31T07:50:14;3.47;;;1.40;;
29570;SDS011;16814;52.118;11.436;2023-07-31T07:52:41;5.17;;;1.63;;
29570;SDS011;16814;52.118;11.436;2023-07-31T07:55:08;3.60;;;1.70;;
29570;SDS011;16814;52.118;11.436;2023-07-31T07:57:35;5.32;;;1.80;;
29570;SDS011;16814;52.118;11.436;2023-07-31T08:00:04;2.97;;;1.70;;
29570;SDS011;16814;52.118;11.436;2023-07-31T08:02:32;5.87;;;2.40;;
29570;SDS011;16814;52.118;11.436;2023-07-31T08:05:03;4.95;;;2.17;;
29570;SDS011;16814;52.118;11.436;2023-07-31T08:07:31;7.25;;;2.40;;
29570;SDS011;16814;52.118;11.436;2023-07-31T08:09:59;9.33;;;2.37;;
29570;SDS011;16814;52.118;11.436;2023-07-31T08:12:29;5.93;;;2.45;;
29570;SDS011;16814;52.118;11.436;2023-07-31T08:14:56;6.40;;;2.43;;
29570;SDS011;16814;52.118;11.436;2023-07-31T08:17:23;9.05;;;2.95;;
29570;SDS011;16814;52.118;11.436;2023-07-31T08:19:52;9.73;;;3.30;;
29570;SDS011;16814;52.118;11.436;2023-07-31T08:22:19;7.60;;;3.42;;
29570;SDS011;16814;52.118;11.436;2023-07-31T08:24:48;9.45;;;4.03;;
29570;SDS011;16814;52.118;11.436;2023-07-31T08:27:14;13.00;;;3.77;;
29570;SDS011;16814;52.118;11.436;2023-07-31T08:29:44;12.43;;;4.30;;
29570;SDS011;16814;52.118;11.436;2023-07-31T08:32:10;10.82;;;4.43;;
29570;SDS011;16814;52.118;11.436;2023-07-31T08:34:37;12.00;;;4.20;;
29570;SDS011;16814;52.118;11.436;2023-07-31T08:37:04;11.07;;;4.05;;
29570;SDS011;16814;52.118;11.436;2023-07-31T08:39:29;13.90;;;4.80;;
29570;SDS011;16814;52.118;11.436;2023-07-31T08:41:58;10.02;;;4.53;;
29570;SDS011;16814;52.118;11.436;2023-07-31T08:44:32;11.70;;;4.63;;
29570;SDS011;16814;52.118;11.436;2023-07-31T08:46:59;11.20;;;3.77;;
29570;SDS011;16814;52.118;11.436;2023-07-31T08:49:26;12.10;;;5.00;;
29570;SDS011;16814;52.118;11.436;2023-07-31T08:51:52;11.30;;;4.13;;
29570;SDS011;16814;52.118;11.436;2023-07-31T08:54:20;9.20;;;3.95;;
29570;SDS011;16814;52.118;11.436;2023-07-31T08:56:47;10.98;;;4.07;;
29570;SDS011;16814;52.118;11.436;2023-07-31T08:59:14;11.43;;;4.63;;
29570;SDS011;16814;52.118;11.436;2023-07-31T09:01:46;12.85;;;4.82;;
29570;SDS011;16814;52.118;11.436;2023-07-31T09:04:16;10.70;;;3.70;;
29570;SDS011;16814;52.118;11.436;2023-07-31T09:06:46;9.48;;;3.75;;
29570;SDS011;16814;52.118;11.436;2023-07-31T09:09:14;14.32;;;4.40;;
29570;SDS011;16814;52.118;11.436;2023-07-31T09:11:41;15.45;;;4.70;;
29570;SDS011;16814;52.118;11.436;2023-07-31T09:14:08;8.53;;;3.90;;
29570;SDS011;16814;52.118;11.436;2023-07-31T09:16:50;9.15;;;3.90;;
29570;SDS011;16814;52.118;11.436;2023-07-31T09:19:29;10.75;;;4.57;;
29570;SDS011;16814;52.118;11.436;2023-07-31T09:22:03;8.05;;;3.90;;
29570;SDS011;16814;52.118;11.436;2023-07-31T09:24:31;8.38;;;3.83;;
29570;SDS011;16814;52.118;11.436;2023-07-31T09:26:59;9.95;;;4.22;;
29570;SDS011;16814;52.118;11.436;2023-07-31T09:29:27;10.07;;;3.83;;
29570;SDS011;16814;52.118;11.436;2023-07-31T09:31:56;12.17;;;4.00;;
29570;SDS011;16814;52.118;11.436;2023-07-31T09:34:45;10.63;;;4.13;;
29570;SDS011;16814;52.118;11.436;2023-07-31T09:37:11;10.50;;;3.83;;
29570;SDS011;16814;52.118;11.436;2023-07-31T09:39:49;7.47;;;3.78;;
29570;SDS011;16814;52.118;11.436;2023-07-31T09:42:24;9.80;;;3.53;;
29570;SDS011;16814;52.118;11.436;2023-07-31T09:45:08;9.00;;;4.30;;
29570;SDS011;16814;52.118;11.436;2023-07-31T09:47:36;10.80;;;3.57;;
29570;SDS011;16814;52.118;11.436;2023-07-31T09:50:07;10.73;;;4.18;;
29570;SDS011;16814;52.118;11.436;2023-07-31T09:52:34;8.52;;;3.80;;
29570;SDS011;16814;52.118;11.436;2023-07-31T09:55:03;9.20;;;3.60;;
29570;SDS011;16814;52.118;11.436;2023-07-31T09:57:30;10.60;;;3.92;;
29570;SDS011;16814;52.118;11.436;2023-07-31T10:00:00;8.23;;;4.07;;
29570;SDS011;16814;52.118;11.436;2023-07-31T10:02:28;10.18;;;3.30;;
29570;SDS011;16814;52.118;11.436;2023-07-31T10:05:16;11.27;;;3.70;;
29570;SDS011;16814;52.118;11.436;2023-07-31T10:08:02;11.57;;;4.15;;
29570;SDS011;16814;52.118;11.436;2023-07-31T10:10:35;7.35;;;3.40;;
29570;SDS011;16814;52.118;11.436;2023-07-31T10:13:04;8.03;;;3.40;;
29570;SDS011;16814;52.118;11.436;2023-07-31T10:15:33;10.98;;;3.78;;
29570;SDS011;16814;52.118;11.436;2023-07-31T10:18:01;8.07;;;3.90;;
29570;SDS011;16814;52.118;11.436;2023-07-31T10:20:27;6.73;;;3.27;;
29570;SDS011;16814;52.118;11.436;2023-07-31T10:22:58;7.33;;;3.40;;
29570;SDS011;16814;52.118;11.436;2023-07-31T10:25:31;8.37;;;3.50;;
29570;SDS011;16814;52.118;11.436;2023-07-31T10:28:00;7.90;;;3.42;;
29570;SDS011;16814;52.118;11.436;2023-07-31T10:30:27;10.57;;;3.28;;
29570;SDS011;16814;52.118;11.436;2023-07-31T10:32:59;10.52;;;3.55;;
29570;SDS011;16814;52.118;11.436;2023-07-31T10:35:28;9.63;;;3.60;;
29570;SDS011;16814;52.118;11.436;2023-07-31T10:37:55;10.70;;;3.28;;
29570;SDS011;16814;52.118;11.436;2023-07-31T10:40:39;7.85;;;3.58;;
29570;SDS011;16814;52.118;11.436;2023-07-31T10:43:06;8.32;;;3.22;;
29570;SDS011;16814;52.118;11.436;2023-07-31T10:45:39;5.50;;;3.50;;
29570;SDS011;16814;52.118;11.436;2023-07-31T10:48:13;10.00;;;3.25;;
29570;SDS011;16814;52.118;11.436;2023-07-31T10:53:29;7.95;;;2.75;;
29570;SDS011;16814;52.118;11.436;2023-07-31T10:56:02;4.03;;;2.38;;
29570;SDS011;16814;52.118;11.436;2023-07-31T10:58:34;6.30;;;2.20;;
29570;SDS011;16814;52.118;11.436;2023-07-31T11:01:05;5.93;;;2.20;;
29570;SDS011;16814;52.118;11.436;2023-07-31T11:06:15;5.28;;;2.20;;
29570;SDS011;16814;52.118;11.436;2023-07-31T11:08:48;4.93;;;1.90;;
29570;SDS011;16814;52.118;11.436;2023-07-31T11:11:21;6.07;;;1.93;;
29570;SDS011;16814;52.118;11.436;2023-07-31T11:13:53;4.28;;;2.00;;
29570;SDS011;16814;52.118;11.436;2023-07-31T11:16:21;4.83;;;2.17;;
29570;SDS011;16814;52.118;11.436;2023-07-31T11:18:51;6.35;;;2.20;;
29570;SDS011;16814;52.118;11.436;2023-07-31T11:21:23;6.37;;;2.60;;
29570;SDS011;16814;52.118;11.436;2023-07-31T11:23:52;5.57;;;2.10;;
29570;SDS011;16814;52.118;11.436;2023-07-31T11:26:22;4.47;;;2.28;;
29570;SDS011;16814;52.118;11.436;2023-07-31T11:28:50;3.92;;;2.03;;
29570;SDS011;16814;52.118;11.436;2023-07-31T11:31:19;4.85;;;2.17;;
29570;SDS011;16814;52.118;11.436;2023-07-31T11:33:48;4.50;;;2.30;;
29570;SDS011;16814;52.118;11.436;2023-07-31T11:36:16;6.45;;;2.22;;
29570;SDS011;16814;52.118;11.436;2023-07-31T11:38:44;6.07;;;2.50;;
29570;SDS011;16814;52.118;11.436;2023-07-31T11:41:13;5.00;;;2.10;;
29570;SDS011;16814;52.118;11.436;2023-07-31T11:43:41;4.85;;;2.40;;
29570;SDS011;16814;52.118;11.436;2023-07-31T11:46:08;4.57;;;2.00;;
29570;SDS011;16814;52.118;11.436;2023-07-31T11:48:45;5.22;;;2.17;;
29570;SDS011;16814;52.118;11.436;2023-07-31T11:51:13;5.43;;;2.10;;
29570;SDS011;16814;52.118;11.436;2023-07-31T11:53:43;5.90;;;2.50;;
29570;SDS011;16814;52.118;11.436;2023-07-31T11:56:21;4.05;;;2.40;;
29570;SDS011;16814;52.118;11.436;2023-07-31T11:58:52;3.28;;;2.22;;
29570;SDS011;16814;52.118;11.436;2023-07-31T12:01:23;8.18;;;2.38;;
29570;SDS011;16814;52.118;11.436;2023-07-31T12:03:49;4.95;;;2.30;;
29570;SDS011;16814;52.118;11.436;2023-07-31T12:06:16;5.65;;;2.60;;
29570;SDS011;16814;52.118;11.436;2023-07-31T12:08:42;3.75;;;2.15;;
29570;SDS011;16814;52.118;11.436;2023-07-31T12:11:20;8.70;;;2.03;;
29570;SDS011;16814;52.118;11.436;2023-07-31T12:13:47;8.57;;;2.50;;
29570;SDS011;16814;52.118;11.436;2023-07-31T12:16:13;4.47;;;2.57;;
29570;SDS011;16814;52.118;11.436;2023-07-31T12:18:41;9.45;;;2.35;;
29570;SDS011;16814;52.118;11.436;2023-07-31T12:21:11;7.72;;;2.50;;
29570;SDS011;16814;52.118;11.436;2023-07-31T12:23:37;4.93;;;2.30;;
29570;SDS011;16814;52.118;11.436;2023-07-31T12:31:11;3.97;;;2.37;;
29570;SDS011;16814;52.118;11.436;2023-07-31T12:33:47;5.20;;;2.40;;
29570;SDS011;16814;52.118;11.436;2023-07-31T12:36:16;6.00;;;2.42;;
29570;SDS011;16814;52.118;11.436;2023-07-31T12:38:47;6.20;;;2.17;;
29570;SDS011;16814;52.118;11.436;2023-07-31T12:41:14;6.23;;;2.00;;
29570;SDS011;16814;52.118;11.436;2023-07-31T12:43:42;7.00;;;2.13;;
29570;SDS011;16814;52.118;11.436;2023-07-31T12:46:10;5.50;;;2.20;;
29570;SDS011;16814;52.118;11.436;2023-07-31T12:48:37;3.60;;;1.90;;
29570;SDS011;16814;52.118;11.436;2023-07-31T12:51:06;8.40;;;2.03;;
29570;SDS011;16814;52.118;11.436;2023-07-31T12:53:35;5.28;;;2.42;;
29570;SDS011;16814;52.118;11.436;2023-07-31T12:56:01;5.38;;;2.42;;
29570;SDS011;16814;52.118;11.436;2023-07-31T12:58:28;4.28;;;2.78;;
29570;SDS011;16814;52.118;11.436;2023-07-31T13:00:57;5.43;;;2.53;;
29570;SDS011;16814;52.118;11.436;2023-07-31T13:03:23;5.03;;;2.55;;
29570;SDS011;16814;52.118;11.436;2023-07-31T13:05:49;5.75;;;2.75;;
29570;SDS011;16814;52.118;11.436;2023-07-31T13:08:17;5.40;;;2.40;;
29570;SDS011;16814;52.118;11.436;2023-07-31T13:10:44;6.45;;;3.08;;
29570;SDS011;16814;52.118;11.436;2023-07-31T13:13:10;4.97;;;2.45;;
29570;SDS011;16814;52.118;11.436;2023-07-31T13:15:37;4.30;;;2.53;;
29570;SDS011;16814;52.118;11.436;2023-07-31T13:18:05;7.65;;;3.05;;
29570;SDS011;16814;52.118;11.436;2023-07-31T13:20:33;6.65;;;2.78;;
29570;SDS011;16814;52.118;11.436;2023-07-31T13:23:01;6.28;;;3.05;;
29570;SDS011;16814;52.118;11.436;2023-07-31T13:25:28;7.10;;;2.50;;
29570;SDS011;16814;52.118;11.436;2023-07-31T13:27:56;6.97;;;2.90;;
29570;SDS011;16814;52.118;11.436;2023-07-31T13:30:24;6.03;;;2.70;;
29570;SDS011;16814;52.118;11.436;2023-07-31T13:32:51;8.70;;;2.90;;
29570;SDS011;16814;52.118;11.436;2023-07-31T13:35:20;5.75;;;2.70;;
29570;SDS011;16814;52.118;11.436;2023-07-31T13:37:45;4.38;;;2.33;;
29570;SDS011;16814;52.118;11.436;2023-07-31T13:40:11;6.22;;;2.58;;
29570;SDS011;16814;52.118;11.436;2023-07-31T13:42:39;5.55;;;2.30;;
29570;SDS011;16814;52.118;11.436;2023-07-31T13:45:07;4.10;;;2.17;;
29570;SDS011;16814;52.118;11.436;2023-07-31T13:47:42;4.80;;;2.13;;
29570;SDS011;16814;52.118;11.436;2023-07-31T13:50:09;4.60;;;2.10;;
29570;SDS011;16814;52.118;11.436;2023-07-31T13:52:36;4.72;;;2.05;;
29570;SDS011;16814;52.118;11.436;2023-07-31T13:55:03;7.53;;;2.70;;
29570;SDS011;16814;52.118;11.436;2023-07-31T13:57:30;6.57;;;1.98;;
29570;SDS011;16814;52.118;11.436;2023-07-31T13:59:58;8.32;;;1.90;;
29570;SDS011;16814;52.118;11.436;2023-07-31T14:02:25;4.57;;;2.20;;
29570;SDS011;16814;52.118;11.436;2023-07-31T14:04:50;5.70;;;2.08;;
29570;SDS011;16814;52.118;11.436;2023-07-31T14:07:18;3.72;;;2.00;;
29570;SDS011;16814;52.118;11.436;2023-07-31T14:09:45;4.07;;;1.83;;
29570;SDS011;16814;52.118;11.436;2023-07-31T14:12:12;3.58;;;1.80;;
29570;SDS011;16814;52.118;11.436;2023-07-31T14:14:40;4.43;;;2.05;;
29570;SDS011;16814;52.118;11.436;2023-07-31T14:17:08;4.03;;;1.95;;
29570;SDS011;16814;52.118;11.436;2023-07-31T14:19:36;4.03;;;1.90;;
29570;SDS011;16814;52.118;11.436;2023-07-31T14:22:04;4.03;;;1.80;;
29570;SDS011;16814;52.118;11.436;2023-07-31T14:24:31;4.07;;;1.90;;
29570;SDS011;16814;52.118;11.436;2023-07-31T14:26:59;3.30;;;1.75;;
29570;SDS011;16814;52.118;11.436;2023-07-31T14:29:29;5.32;;;2.33;;
29570;SDS011;16814;52.118;11.436;2023-07-31T14:31:56;5.15;;;2.03;;
29570;SDS011;16814;52.118;11.436;2023-07-31T14:34:26;3.33;;;1.77;;
29570;SDS011;16814;52.118;11.436;2023-07-31T14:36:53;4.60;;;1.80;;
29570;SDS011;16814;52.118;11.436;2023-07-31T14:39:20;4.80;;;1.80;;
29570;SDS011;16814;52.118;11.436;2023-07-31T14:41:46;2.97;;;1.65;;
29570;SDS011;16814;52.118;11.436;2023-07-31T14:44:13;2.53;;;1.60;;
29570;SDS011;16814;52.118;11.436;2023-07-31T14:46:41;10.93;;;2.08;;
29570;SDS011;16814;52.118;11.436;2023-07-31T14:49:06;5.30;;;1.77;;
29570;SDS011;16814;52.118;11.436;2023-07-31T14:51:33;4.63;;;1.80;;
29570;SDS011;16814;52.118;11.436;2023-07-31T14:54:01;5.05;;;1.50;;
29570;SDS011;16814;52.118;11.436;2023-07-31T14:56:29;3.08;;;1.50;;
29570;SDS011;16814;52.118;11.436;2023-07-31T14:58:55;2.47;;;1.00;;